Time;durP1;ratioP1;P1;durP2;ratioP2;P2;SDS_P1;SDS_P2;PMS_P1;PMS_P2;Temp;Humidity;BMP_temperature;BMP_pressure;BME280_temperature;BME280_humidity;BME280_pressure;Samples;Min_cycle;Max_cycle;Signal;HPM_P1;HPM_P2
2022/12/08 00:01:09;;;;;;;;;;;4.90;99.90;;;;;;5024684;28;19919;-60
2022/12/08 00:03:35;;;;;;;;;;;4.90;99.90;;;;;;5025091;28;20284;-61
2022/12/08 00:11:30;;;;;;;;;;;4.90;99.90;;;;;;5029321;28;19970;-61
2022/12/08 00:13:55;;;;;;;;;;;4.80;99.90;;;;;;5030327;28;19917;-62
2022/12/08 00:16:21;;;;;;;;;;;4.90;99.90;;;;;;5025152;28;19983;-63
2022/12/08 00:18:46;;;;;;;;;;;4.90;99.90;;;;;;5029880;28;19944;-62
2022/12/08 00:21:12;;;;;;;;;;;4.90;99.90;;;;;;5029185;28;19912;-62
2022/12/08 00:23:37;;;;;;;;;;;4.90;99.90;;;;;;5027822;28;20386;-60
2022/12/08 00:26:03;;;;;;;;;;;4.90;99.90;;;;;;5029258;28;19920;-60
2022/12/08 00:28:30;;;;;;;;;;;4.90;99.90;;;;;;5028139;28;19912;-60
2022/12/08 00:30:55;;;;;;;;;;;4.90;99.90;;;;;;5026500;28;19977;-59
2022/12/08 00:33:21;;;;;;;;;;;4.90;99.90;;;;;;5030202;28;19914;-61
2022/12/08 00:35:46;;;;;;;;;;;4.90;99.90;;;;;;5007719;28;20000;-60
2022/12/08 00:38:11;;;;;;;;;;;4.90;99.90;;;;;;5026384;28;20490;-61
2022/12/08 00:40:37;;;;;;;;;;;4.90;99.90;;;;;;5022225;28;19926;-60
2022/12/08 00:43:02;;;;;;;;;;;4.80;99.90;;;;;;5027406;28;20454;-61
2022/12/08 00:45:28;;;;;;;;;;;4.80;99.90;;;;;;5028454;28;19913;-61
2022/12/08 00:47:53;;;;;;;;;;;4.80;99.90;;;;;;5027661;28;19955;-61
2022/12/08 00:50:19;;;;;;;;;;;4.90;99.90;;;;;;5028999;28;19921;-58
2022/12/08 00:52:44;;;;;;;;;;;4.90;99.90;;;;;;5028173;28;20431;-61
2022/12/08 00:55:09;;;;;;;;;;;4.90;99.90;;;;;;5024080;28;20632;-59
2022/12/08 00:57:35;;;;;;;;;;;4.90;99.90;;;;;;5027756;28;19913;-62
2022/12/08 01:00:00;;;;;;;;;;;4.90;99.90;;;;;;5026881;28;19917;-59
2022/12/08 01:02:26;;;;;;;;;;;4.80;99.90;;;;;;5027152;28;20015;-59
2022/12/08 01:04:51;;;;;;;;;;;4.90;99.90;;;;;;5029596;28;20446;-59
2022/12/08 01:07:17;;;;;;;;;;;4.90;99.90;;;;;;5031106;28;20347;-62
2022/12/08 01:09:42;;;;;;;;;;;4.90;99.90;;;;;;5025563;28;19960;-61
2022/12/08 01:12:08;;;;;;;;;;;4.90;99.90;;;;;;5028286;28;19921;-59
2022/12/08 01:14:33;;;;;;;;;;;4.90;99.90;;;;;;5025418;28;19959;-61
2022/12/08 01:16:59;;;;;;;;;;;4.90;99.90;;;;;;5026697;28;20003;-62
2022/12/08 01:19:24;;;;;;;;;;;4.90;99.90;;;;;;5026448;28;20446;-62
2022/12/08 01:21:49;;;;;;;;;;;4.80;99.90;;;;;;5029300;28;19920;-60
2022/12/08 01:24:19;;;;;;;;;;;4.80;99.90;;;;;;5027874;28;20432;-60
2022/12/08 01:26:45;;;;;;;;;;;4.80;99.90;;;;;;5023042;28;19917;-61
2022/12/08 01:29:11;;;;;;;;;;;4.90;99.90;;;;;;5027370;28;19920;-61
2022/12/08 01:31:36;;;;;;;;;;;4.90;99.90;;;;;;5025448;28;19917;-63
2022/12/08 01:34:02;;;;;;;;;;;4.90;99.90;;;;;;5027451;28;19916;-63
2022/12/08 01:36:29;;;;;;;;;;;4.90;99.90;;;;;;5028354;28;19913;-61
2022/12/08 01:38:59;;;;;;;;;;;4.90;99.90;;;;;;5024601;28;19964;-60
2022/12/08 01:41:26;;;;;;;;;;;4.90;99.90;;;;;;5026511;28;19948;-60
2022/12/08 01:43:51;;;;;;;;;;;4.90;99.90;;;;;;5029603;28;20027;-61
2022/12/08 01:46:17;;;;;;;;;;;4.90;99.90;;;;;;5023401;28;20368;-61
2022/12/08 01:48:42;;;;;;;;;;;4.90;99.90;;;;;;5026659;28;19913;-63
2022/12/08 01:51:08;;;;;;;;;;;5.00;99.90;;;;;;5026462;28;20405;-63
2022/12/08 01:53:34;;;;;;;;;;;5.00;99.90;;;;;;5010593;28;19917;-61
2022/12/08 01:56:05;;;;;;;;;;;5.00;99.90;;;;;;5029758;28;19914;-61
2022/12/08 01:58:33;;;;;;;;;;;5.00;99.90;;;;;;5026080;28;19920;-61
2022/12/08 02:00:59;;;;;;;;;;;5.00;99.90;;;;;;5005710;28;19913;-60
2022/12/08 02:03:30;;;;;;;;;;;5.00;99.90;;;;;;5008644;28;19928;-59
2022/12/08 02:05:56;;;;;;;;;;;5.00;99.90;;;;;;5022815;28;19913;-60
2022/12/08 02:08:21;;;;;;;;;;;4.90;99.90;;;;;;5028444;28;19936;-61
2022/12/08 02:10:48;;;;;;;;;;;4.90;99.90;;;;;;5028464;28;20024;-61
2022/12/08 02:13:15;;;;;;;;;;;5.00;99.90;;;;;;5027541;28;19921;-59
2022/12/08 02:15:40;;;;;;;;;;;5.00;99.90;;;;;;5028080;28;19928;-59
2022/12/08 02:18:21;;;;;;;;;;;5.00;99.90;;;;;;5032835;28;19921;-59
2022/12/08 02:21:02;;;;;;;;;;;5.00;99.90;;;;;;5033256;28;19920;-59
2022/12/08 02:23:34;;;;;;;;;;;5.00;99.90;;;;;;5032896;28;19935;-59
2022/12/08 02:26:09;;;;;;;;;;;5.00;99.90;;;;;;5031711;28;20276;-57
2022/12/08 02:28:54;;;;;;;;;;;5.10;99.90;;;;;;5032110;28;19920;-61
2022/12/08 02:31:19;;;;;;;;;;;5.00;99.90;;;;;;5032459;28;19917;-61
2022/12/08 02:33:51;;;;;;;;;;;5.00;99.90;;;;;;5034127;28;19924;-61
2022/12/08 02:36:36;;;;;;;;;;;5.00;99.90;;;;;;5033137;28;19920;-59
2022/12/08 02:39:21;;;;;;;;;;;5.00;99.90;;;;;;5023545;28;20004;-62
2022/12/08 02:41:55;;;;;;;;;;;5.00;99.90;;;;;;5017363;28;19935;-60
2022/12/08 02:44:28;;;;;;;;;;;5.00;99.90;;;;;;5031844;28;19920;-60
2022/12/08 02:47:17;;;;;;;;;;;5.00;99.90;;;;;;5031552;28;19913;-61
2022/12/08 02:49:43;;;;;;;;;;;5.00;99.90;;;;;;5024650;28;19999;-61
2022/12/08 02:52:11;;;;;;;;;;;5.00;99.90;;;;;;5030496;28;20027;-60
2022/12/08 02:54:48;;;;;;;;;;;5.00;99.90;;;;;;5033908;28;19971;-62
2022/12/08 02:57:19;;;;;;;;;;;5.00;99.90;;;;;;5029682;28;19927;-60
2022/12/08 02:59:55;;;;;;;;;;;5.00;99.90;;;;;;5033487;28;19967;-59
2022/12/08 03:02:26;;;;;;;;;;;5.00;99.90;;;;;;5031670;28;19941;-64
2022/12/08 03:05:00;;;;;;;;;;;5.00;99.90;;;;;;5033460;28;19913;-62
2022/12/08 03:07:26;;;;;;;;;;;5.00;99.90;;;;;;5035032;28;19916;-63
2022/12/08 03:10:01;;;;;;;;;;;5.10;99.90;;;;;;5030678;28;20290;-62
2022/12/08 03:12:33;;;;;;;;;;;5.10;99.90;;;;;;5033232;28;20477;-63
2022/12/08 03:15:00;;;;;;;;;;;5.10;99.90;;;;;;5032518;28;19917;-61
2022/12/08 03:17:27;;;;;;;;;;;5.10;99.90;;;;;;5031545;28;19913;-61
2022/12/08 03:19:53;;;;;;;;;;;5.10;99.90;;;;;;5033309;28;20005;-67
2022/12/08 03:22:20;;;;;;;;;;;5.10;99.90;;;;;;5033847;28;20012;-62
2022/12/08 03:24:47;;;;;;;;;;;5.10;99.90;;;;;;5031669;28;19917;-60
2022/12/08 03:27:14;;;;;;;;;;;5.10;99.90;;;;;;5011298;28;20356;-60
2022/12/08 03:29:39;;;;;;;;;;;5.00;99.90;;;;;;5030875;28;19957;-59
2022/12/08 03:32:12;;;;;;;;;;;5.00;99.90;;;;;;5028601;28;19952;-60
2022/12/08 03:34:38;;;;;;;;;;;5.10;99.90;;;;;;5026347;28;20004;-61
2022/12/08 03:37:04;;;;;;;;;;;5.10;99.90;;;;;;5030984;28;19913;-59
2022/12/08 03:39:29;;;;;;;;;;;5.10;99.90;;;;;;5029815;28;20298;-62
2022/12/08 03:41:55;;;;;;;;;;;5.10;99.90;;;;;;5029686;28;19913;-62
2022/12/08 03:44:20;;;;;;;;;;;5.10;99.90;;;;;;5013373;28;19960;-61
2022/12/08 03:46:46;;;;;;;;;;;5.10;99.90;;;;;;5027603;28;19971;-61
2022/12/08 03:49:13;;;;;;;;;;;5.00;99.90;;;;;;5022878;28;21541;-62
2022/12/08 03:51:38;;;;;;;;;;;5.10;99.90;;;;;;5029232;28;19917;-61
2022/12/08 03:54:04;;;;;;;;;;;5.10;99.90;;;;;;5025125;28;19913;-61
2022/12/08 03:56:34;;;;;;;;;;;5.10;99.90;;;;;;5027744;28;20043;-61
2022/12/08 03:58:59;;;;;;;;;;;5.10;99.90;;;;;;5031071;28;20426;-60
2022/12/08 04:01:26;;;;;;;;;;;5.00;99.90;;;;;;5030928;28;19917;-62
2022/12/08 04:03:52;;;;;;;;;;;5.00;99.90;;;;;;5030795;28;19913;-63
2022/12/08 04:06:17;;;;;;;;;;;5.00;99.90;;;;;;5031054;28;19917;-62
2022/12/08 04:08:43;;;;;;;;;;;5.10;99.90;;;;;;5027414;28;19913;-61
2022/12/08 04:11:08;;;;;;;;;;;5.10;99.90;;;;;;5030074;28;19963;-60
2022/12/08 04:13:35;;;;;;;;;;;5.00;99.90;;;;;;5028070;28;19952;-60
2022/12/08 04:16:00;;;;;;;;;;;5.00;99.90;;;;;;5012374;28;19913;-61
2022/12/08 04:18:25;;;;;;;;;;;5.00;99.90;;;;;;5030273;28;19983;-60
2022/12/08 04:20:51;;;;;;;;;;;5.00;99.90;;;;;;5028084;28;19920;-62
2022/12/08 04:23:16;;;;;;;;;;;5.00;99.90;;;;;;5029638;28;20035;-63
2022/12/08 04:25:42;;;;;;;;;;;5.00;99.90;;;;;;5029373;28;19920;-60
2022/12/08 04:28:07;;;;;;;;;;;5.00;99.90;;;;;;5029253;28;20355;-63
2022/12/08 04:30:33;;;;;;;;;;;5.00;99.90;;;;;;5028402;28;19917;-62
2022/12/08 04:32:58;;;;;;;;;;;5.00;99.90;;;;;;5026225;28;19944;-61
2022/12/08 04:35:24;;;;;;;;;;;4.90;99.90;;;;;;5025078;28;19939;-61
2022/12/08 04:37:50;;;;;;;;;;;4.90;99.90;;;;;;5030862;28;20000;-60
2022/12/08 04:40:16;;;;;;;;;;;4.90;99.90;;;;;;5029357;28;19914;-63
2022/12/08 04:42:41;;;;;;;;;;;4.80;99.90;;;;;;5027705;28;20015;-62
2022/12/08 04:45:07;;;;;;;;;;;4.80;99.90;;;;;;5028402;28;19917;-62
2022/12/08 04:47:32;;;;;;;;;;;4.80;99.90;;;;;;5028967;28;19920;-63
2022/12/08 04:49:58;;;;;;;;;;;4.80;99.90;;;;;;5026226;28;19917;-63
2022/12/08 04:52:23;;;;;;;;;;;4.90;99.90;;;;;;5026803;28;19975;-61
2022/12/08 04:54:49;;;;;;;;;;;4.90;99.90;;;;;;5028687;28;19913;-63
2022/12/08 04:57:14;;;;;;;;;;;4.80;99.90;;;;;;5028953;28;19920;-64
2022/12/08 04:59:40;;;;;;;;;;;4.90;99.90;;;;;;5028598;28;19928;-58
2022/12/08 05:02:05;;;;;;;;;;;4.80;99.90;;;;;;5023971;28;19921;-60
2022/12/08 05:04:31;;;;;;;;;;;4.80;99.90;;;;;;5025638;28;20414;-63
2022/12/08 05:06:56;;;;;;;;;;;4.80;99.90;;;;;;5027505;28;20055;-60
2022/12/08 05:09:22;;;;;;;;;;;4.90;99.90;;;;;;5026289;28;19917;-59
2022/12/08 05:11:47;;;;;;;;;;;4.90;99.90;;;;;;5029535;28;19925;-60
2022/12/08 05:14:14;;;;;;;;;;;4.90;99.90;;;;;;5029140;28;19913;-61
2022/12/08 05:16:40;;;;;;;;;;;4.90;99.90;;;;;;5027286;28;19991;-61
2022/12/08 05:19:05;;;;;;;;;;;4.90;99.90;;;;;;5028170;28;20396;-60
2022/12/08 05:21:31;;;;;;;;;;;4.80;99.90;;;;;;5010976;28;19913;-62
2022/12/08 05:23:56;;;;;;;;;;;4.90;99.90;;;;;;5027275;28;20040;-62
2022/12/08 05:26:22;;;;;;;;;;;4.80;99.90;;;;;;5026889;28;19913;-60
2022/12/08 05:28:47;;;;;;;;;;;4.80;99.90;;;;;;5027889;28;20268;-63
2022/12/08 05:31:13;;;;;;;;;;;4.90;99.90;;;;;;5022846;28;19921;-63
2022/12/08 05:33:39;;;;;;;;;;;4.90;99.90;;;;;;5026285;28;19914;-63
2022/12/08 05:36:05;;;;;;;;;;;4.80;99.90;;;;;;5010538;28;19920;-62
2022/12/08 05:38:30;;;;;;;;;;;4.90;99.90;;;;;;5028149;28;19966;-60
2022/12/08 05:40:56;;;;;;;;;;;4.90;99.90;;;;;;5032708;28;20047;-62
2022/12/08 05:43:21;;;;;;;;;;;4.90;99.90;;;;;;5029552;28;20339;-63
2022/12/08 05:45:47;;;;;;;;;;;4.90;99.90;;;;;;5008476;28;19979;-62
2022/12/08 05:48:12;;;;;;;;;;;4.90;99.90;;;;;;5026185;28;20008;-61
2022/12/08 05:50:38;;;;;;;;;;;4.90;99.90;;;;;;5028609;28;20264;-61
2022/12/08 05:53:03;;;;;;;;;;;4.90;99.90;;;;;;5010524;28;19917;-62
2022/12/08 05:55:29;;;;;;;;;;;4.90;99.90;;;;;;5028342;28;19917;-61
2022/12/08 05:57:54;;;;;;;;;;;5.00;99.90;;;;;;5025334;28;19921;-61
2022/12/08 06:00:20;;;;;;;;;;;5.00;99.90;;;;;;5026169;28;19921;-60
2022/12/08 06:02:45;;;;;;;;;;;5.00;99.90;;;;;;5025326;28;19921;-63
2022/12/08 06:05:11;;;;;;;;;;;5.00;99.90;;;;;;5027588;28;19920;-63
2022/12/08 06:07:36;;;;;;;;;;;5.00;99.90;;;;;;5026320;28;19927;-61
2022/12/08 06:10:02;;;;;;;;;;;5.00;99.90;;;;;;5025131;28;19929;-58
2022/12/08 06:12:28;;;;;;;;;;;5.00;99.90;;;;;;5011027;28;20398;-58
2022/12/08 06:14:53;;;;;;;;;;;5.00;99.90;;;;;;5027508;28;20028;-59
2022/12/08 06:17:19;;;;;;;;;;;5.00;99.90;;;;;;5028199;28;20441;-60
2022/12/08 06:19:44;;;;;;;;;;;5.00;99.90;;;;;;5026974;28;20298;-59
2022/12/08 06:22:09;;;;;;;;;;;5.00;99.90;;;;;;5028453;28;19913;-55
2022/12/08 06:24:35;;;;;;;;;;;5.00;99.90;;;;;;5026767;28;19913;-57
2022/12/08 06:27:00;;;;;;;;;;;5.00;99.90;;;;;;5022564;28;19967;-60
2022/12/08 06:29:26;;;;;;;;;;;5.00;99.90;;;;;;5028474;28;19920;-57
2022/12/08 06:31:51;;;;;;;;;;;5.00;99.90;;;;;;5025680;28;19928;-57
2022/12/08 06:34:17;;;;;;;;;;;5.00;99.90;;;;;;5027330;28;19924;-59
2022/12/08 06:36:42;;;;;;;;;;;4.90;99.90;;;;;;5028253;28;19913;-57
2022/12/08 06:39:08;;;;;;;;;;;4.90;99.90;;;;;;5029115;28;20008;-57
2022/12/08 06:42:42;;;;;;;;;;;4.90;99.90;;;;;;5027089;28;19913;-58
2022/12/08 06:44:19;;;;;;;;;;;4.90;99.90;;;;;;5028689;28;19913;-58
2022/12/08 06:46:44;;;;;;;;;;;4.90;99.90;;;;;;5027563;28;19913;-57
2022/12/08 06:49:10;;;;;;;;;;;5.00;99.90;;;;;;5029569;28;19945;-54
2022/12/08 06:51:35;;;;;;;;;;;5.00;99.90;;;;;;5029494;28;19976;-62
2022/12/08 06:54:01;;;;;;;;;;;4.90;99.90;;;;;;5030738;28;19909;-56
2022/12/08 06:56:26;;;;;;;;;;;4.90;99.90;;;;;;5006577;28;19917;-60
2022/12/08 06:58:52;;;;;;;;;;;4.90;99.90;;;;;;5028982;28;20371;-58
2022/12/08 07:01:17;;;;;;;;;;;4.90;99.90;;;;;;5027568;28;19921;-56
2022/12/08 07:03:43;;;;;;;;;;;4.90;99.90;;;;;;5028363;28;19919;-60
2022/12/08 07:06:13;;;;;;;;;;;4.90;99.90;;;;;;5030253;28;19914;-60
2022/12/08 07:08:39;;;;;;;;;;;4.90;99.90;;;;;;5030079;28;20011;-58
2022/12/08 07:11:08;;;;;;;;;;;4.90;99.90;;;;;;5032129;28;20015;-58
2022/12/08 07:13:33;;;;;;;;;;;4.90;99.90;;;;;;5031783;28;20394;-58
2022/12/08 07:15:59;;;;;;;;;;;5.00;99.90;;;;;;5031764;28;19913;-58
2022/12/08 07:18:24;;;;;;;;;;;4.90;99.90;;;;;;5031407;28;20555;-58
2022/12/08 07:20:50;;;;;;;;;;;4.90;99.90;;;;;;5030802;28;19976;-58
2022/12/08 07:23:15;;;;;;;;;;;4.90;99.90;;;;;;5031539;28;19960;-57
2022/12/08 07:25:41;;;;;;;;;;;4.90;99.90;;;;;;5031452;28;20008;-58
2022/12/08 07:28:07;;;;;;;;;;;4.90;99.90;;;;;;5032046;28;19913;-62
2022/12/08 07:30:32;;;;;;;;;;;4.90;99.90;;;;;;5030219;28;19924;-57
2022/12/08 07:32:58;;;;;;;;;;;4.90;99.90;;;;;;5031871;28;19909;-58
2022/12/08 07:35:23;;;;;;;;;;;4.80;99.90;;;;;;5030275;28;19920;-57
2022/12/08 07:37:49;;;;;;;;;;;4.80;99.90;;;;;;5030717;28;19966;-57
2022/12/08 07:40:14;;;;;;;;;;;4.90;99.90;;;;;;5030262;28;20007;-58
2022/12/08 07:42:40;;;;;;;;;;;4.70;99.90;;;;;;5030662;28;19921;-58
2022/12/08 07:45:05;;;;;;;;;;;4.70;99.90;;;;;;5013730;28;19920;-66
2022/12/08 07:47:31;;;;;;;;;;;4.70;99.90;;;;;;5031596;28;19913;-56
2022/12/08 07:49:56;;;;;;;;;;;4.60;99.90;;;;;;5030512;28;19925;-58
2022/12/08 07:52:22;;;;;;;;;;;4.70;99.90;;;;;;5031418;28;19917;-58
2022/12/08 07:54:47;;;;;;;;;;;4.60;99.90;;;;;;5029923;28;19921;-59
2022/12/08 07:57:13;;;;;;;;;;;4.60;99.90;;;;;;5030546;28;19920;-57
2022/12/08 07:59:38;;;;;;;;;;;4.60;99.90;;;;;;5027122;28;19913;-57
2022/12/08 08:02:04;;;;;;;;;;;4.70;99.90;;;;;;5026620;28;20031;-58
2022/12/08 08:04:29;;;;;;;;;;;4.60;99.90;;;;;;5031623;28;20035;-56
2022/12/08 08:06:54;;;;;;;;;;;4.50;99.90;;;;;;5032465;28;19916;-60
2022/12/08 08:09:20;;;;;;;;;;;4.50;99.90;;;;;;5029344;28;20375;-57
2022/12/08 08:11:47;;;;;;;;;;;4.50;99.90;;;;;;5028011;28;19943;-57
2022/12/08 08:14:12;;;;;;;;;;;4.50;99.90;;;;;;5030254;28;19913;-55
2022/12/08 08:16:40;;;;;;;;;;;4.40;99.90;;;;;;5023256;28;19995;-56
2022/12/08 08:19:06;;;;;;;;;;;4.30;99.90;;;;;;5032015;28;20126;-58
2022/12/08 08:21:31;;;;;;;;;;;4.30;99.90;;;;;;5031775;28;19953;-60
2022/12/08 08:23:57;;;;;;;;;;;4.20;99.90;;;;;;5032219;28;19924;-57
2022/12/08 08:26:23;;;;;;;;;;;4.20;99.90;;;;;;5032421;28;19927;-58
2022/12/08 08:28:48;;;;;;;;;;;4.20;99.90;;;;;;5030869;28;20008;-54
2022/12/08 08:31:14;;;;;;;;;;;4.30;99.90;;;;;;5032487;28;20441;-58
2022/12/08 08:33:39;;;;;;;;;;;4.30;99.90;;;;;;5030402;28;20378;-56
2022/12/08 08:36:06;;;;;;;;;;;4.30;99.90;;;;;;5031750;28;19909;-59
2022/12/08 08:38:31;;;;;;;;;;;4.30;99.90;;;;;;5031113;28;20358;-55
2022/12/08 08:40:56;;;;;;;;;;;4.30;99.90;;;;;;5035552;28;19960;-56
2022/12/08 08:43:28;;;;;;;;;;;4.30;99.90;;;;;;5031658;28;20379;-57
2022/12/08 08:45:57;;;;;;;;;;;4.40;99.90;;;;;;5031742;28;19932;-58
2022/12/08 08:48:22;;;;;;;;;;;4.30;99.90;;;;;;5031509;28;19910;-58
2022/12/08 08:50:48;;;;;;;;;;;4.30;99.90;;;;;;5030290;28;19921;-57
2022/12/08 08:53:13;;;;;;;;;;;4.30;99.90;;;;;;5031346;28;20306;-60
2022/12/08 08:55:39;;;;;;;;;;;4.30;99.90;;;;;;5031692;28;19913;-58
2022/12/08 08:58:04;;;;;;;;;;;4.30;99.90;;;;;;5031281;28;19955;-54
2022/12/08 09:00:30;;;;;;;;;;;4.40;99.90;;;;;;5028560;28;19925;-56
2022/12/08 09:02:55;;;;;;;;;;;4.30;99.90;;;;;;5028230;28;19920;-58
2022/12/08 09:05:21;;;;;;;;;;;4.40;99.90;;;;;;5027437;28;19920;-57
2022/12/08 09:07:46;;;;;;;;;;;4.40;99.90;;;;;;5029040;28;20442;-59
2022/12/08 09:10:11;;;;;;;;;;;4.50;99.90;;;;;;5029106;28;19924;-56
2022/12/08 09:12:37;;;;;;;;;;;4.50;99.90;;;;;;5010659;28;19917;-57
2022/12/08 09:15:03;;;;;;;;;;;4.50;99.90;;;;;;5023630;28;20293;-61
2022/12/08 09:17:28;;;;;;;;;;;4.50;99.90;;;;;;5031843;28;19912;-57
2022/12/08 09:19:54;;;;;;;;;;;4.50;99.90;;;;;;5029111;28;19914;-56
2022/12/08 09:22:19;;;;;;;;;;;4.60;99.90;;;;;;5027917;28;20028;-59
2022/12/08 09:24:45;;;;;;;;;;;4.50;99.90;;;;;;5014893;28;20409;-61
2022/12/08 09:27:10;;;;;;;;;;;4.50;99.90;;;;;;5032191;28;19913;-57
2022/12/08 09:29:35;;;;;;;;;;;4.50;99.90;;;;;;5032296;28;19960;-59
2022/12/08 09:32:01;;;;;;;;;;;4.60;99.90;;;;;;5030388;28;20368;-54
2022/12/08 09:34:26;;;;;;;;;;;4.50;99.90;;;;;;5030428;28;19917;-58
2022/12/08 09:36:52;;;;;;;;;;;4.60;99.90;;;;;;5028147;28;19913;-56
2022/12/08 09:39:17;;;;;;;;;;;4.50;99.90;;;;;;5026337;28;20488;-54
2022/12/08 09:41:48;;;;;;;;;;;4.60;99.90;;;;;;5010852;28;20348;-55
2022/12/08 09:44:29;;;;;;;;;;;4.60;99.90;;;;;;5029179;28;20394;-58
2022/12/08 09:46:54;;;;;;;;;;;4.60;99.90;;;;;;5028315;28;19948;-60
2022/12/08 09:49:22;;;;;;;;;;;4.60;99.90;;;;;;5028735;28;20331;-57
2022/12/08 09:51:48;;;;;;;;;;;4.60;99.90;;;;;;5029566;28;19921;-60
2022/12/08 09:54:21;;;;;;;;;;;4.60;99.90;;;;;;5040861;22;19933;-63
2022/12/08 09:56:47;;;;;;;;;;;4.60;99.90;;;;;;5028176;28;19925;-63
2022/12/08 09:59:23;;;;;;;;;;;4.60;99.90;;;;;;5031037;28;19913;-63
2022/12/08 10:01:49;;;;;;;;;;;4.60;99.90;;;;;;5030423;28;19921;-63
2022/12/08 10:04:21;;;;;;;;;;;4.60;99.90;;;;;;5027234;28;20012;-63
2022/12/08 10:06:55;;;;;;;;;;;4.60;99.90;;;;;;5028774;28;20004;-63
2022/12/08 10:09:20;;;;;;;;;;;4.60;99.90;;;;;;5025700;28;19919;-63
2022/12/08 10:11:52;;;;;;;;;;;4.60;99.90;;;;;;5026280;28;20015;-64
2022/12/08 10:14:27;;;;;;;;;;;4.70;99.90;;;;;;5028412;28;20348;-63
2022/12/08 10:16:57;;;;;;;;;;;4.70;99.90;;;;;;5006355;28;19913;-63
2022/12/08 10:19:24;;;;;;;;;;;4.60;99.90;;;;;;5022977;28;19909;-63
2022/12/08 10:21:49;;;;;;;;;;;4.70;99.90;;;;;;5031219;28;19963;-63
2022/12/08 10:24:19;;;;;;;;;;;4.60;99.90;;;;;;5028354;28;19909;-63
2022/12/08 10:26:46;;;;;;;;;;;4.70;99.90;;;;;;5023977;28;19916;-64
2022/12/08 10:29:12;;;;;;;;;;;4.60;99.90;;;;;;5030096;28;19910;-63
2022/12/08 10:31:37;;;;;;;;;;;4.60;99.90;;;;;;5029359;28;20394;-64
2022/12/08 10:34:13;;;;;;;;;;;4.70;99.90;;;;;;5029259;28;19913;-63
2022/12/08 10:36:52;;;;;;;;;;;4.70;99.90;;;;;;5034403;28;19909;-64
2022/12/08 10:39:31;;;;;;;;;;;4.70;99.90;;;;;;5034551;28;19909;-64
2022/12/08 10:42:12;;;;;;;;;;;4.70;99.90;;;;;;5033620;28;20016;-63
2022/12/08 10:44:51;;;;;;;;;;;4.70;99.90;;;;;;5033976;28;20298;-63
2022/12/08 10:47:19;;;;;;;;;;;4.70;99.90;;;;;;5034212;28;20025;-63
2022/12/08 10:49:45;;;;;;;;;;;4.80;99.90;;;;;;5032657;28;19974;-63
2022/12/08 10:52:23;;;;;;;;;;;4.80;99.90;;;;;;5033205;28;19917;-64
2022/12/08 10:54:53;;;;;;;;;;;4.80;99.90;;;;;;5033650;28;19917;-63
2022/12/08 10:57:22;;;;;;;;;;;4.90;99.90;;;;;;5034411;28;20393;-62
2022/12/08 10:59:47;;;;;;;;;;;4.90;99.90;;;;;;5026096;28;19913;-63
2022/12/08 11:02:22;;;;;;;;;;;4.90;99.90;;;;;;5034481;28;20000;-63
2022/12/08 11:04:55;;;;;;;;;;;4.90;99.90;;;;;;5033009;28;19917;-63
2022/12/08 11:07:21;;;;;;;;;;;4.90;99.90;;;;;;5027794;28;19913;-63
2022/12/08 11:09:49;;;;;;;;;;;4.90;99.90;;;;;;5031421;28;19920;-63
2022/12/08 11:12:15;;;;;;;;;;;4.90;99.90;;;;;;5032757;28;20390;-61
2022/12/08 11:14:41;;;;;;;;;;;4.90;99.90;;;;;;5034318;28;19909;-64
2022/12/08 11:17:09;;;;;;;;;;;4.70;99.90;;;;;;5033074;28;20004;-63
2022/12/08 11:19:39;;;;;;;;;;;4.70;99.90;;;;;;5032197;28;19923;-63
2022/12/08 11:22:19;;;;;;;;;;;4.70;99.90;;;;;;5033290;28;19909;-64
2022/12/08 11:24:45;;;;;;;;;;;4.60;99.90;;;;;;5033343;28;19956;-63
2022/12/08 11:27:11;;;;;;;;;;;4.50;99.90;;;;;;5032897;28;20457;-63
2022/12/08 11:29:36;;;;;;;;;;;4.50;99.90;;;;;;5032743;28;19913;-63
2022/12/08 11:32:06;;;;;;;;;;;4.50;99.90;;;;;;5033220;28;20386;-63
2022/12/08 11:34:40;;;;;;;;;;;4.40;99.90;;;;;;5031398;28;20012;-61
2022/12/08 11:37:07;;;;;;;;;;;4.40;99.90;;;;;;5027524;28;19913;-65
2022/12/08 11:39:34;;;;;;;;;;;4.40;99.90;;;;;;5032178;28;19913;-64
2022/12/08 11:42:01;;;;;;;;;;;4.40;99.90;;;;;;5033125;28;19963;-64
2022/12/08 11:44:37;;;;;;;;;;;4.50;99.90;;;;;;5032919;28;19913;-64
2022/12/08 11:47:13;;;;;;;;;;;4.60;99.90;;;;;;5026943;28;19909;-64
2022/12/08 11:49:40;;;;;;;;;;;4.60;99.90;;;;;;5013905;28;19913;-64
2022/12/08 11:52:21;;;;;;;;;;;4.70;99.90;;;;;;5033217;28;19968;-63
2022/12/08 11:54:51;;;;;;;;;;;4.70;99.90;;;;;;5032691;28;19924;-64
2022/12/08 11:57:20;;;;;;;;;;;4.70;99.90;;;;;;5033417;28;19910;-63
2022/12/08 11:59:50;;;;;;;;;;;4.80;99.90;;;;;;5030997;28;19921;-63
2022/12/08 12:02:17;;;;;;;;;;;4.90;99.90;;;;;;5032476;28;19940;-64
2022/12/08 12:04:45;;;;;;;;;;;4.90;99.90;;;;;;5031633;28;20379;-64
2022/12/08 12:07:11;;;;;;;;;;;5.00;99.90;;;;;;5032603;28;20311;-64
2022/12/08 12:09:57;;;;;;;;;;;5.00;99.90;;;;;;5031485;28;19913;-64
2022/12/08 12:12:38;;;;;;;;;;;5.10;99.90;;;;;;5032722;28;20004;-63
2022/12/08 12:15:11;;;;;;;;;;;5.10;99.90;;;;;;5032697;28;20324;-64
2022/12/08 12:17:39;;;;;;;;;;;5.20;99.90;;;;;;5032395;28;19917;-64
2022/12/08 12:20:14;;;;;;;;;;;5.20;99.90;;;;;;5031337;28;19983;-64
2022/12/08 12:22:40;;;;;;;;;;;5.30;99.90;;;;;;5032589;28;19916;-63
2022/12/08 12:25:14;;;;;;;;;;;5.30;99.90;;;;;;5031853;28;19967;-63
2022/12/08 12:27:40;;;;;;;;;;;5.40;99.90;;;;;;5031405;28;20422;-64
2022/12/08 12:30:07;;;;;;;;;;;5.40;99.90;;;;;;5029093;28;19920;-63
2022/12/08 12:32:49;;;;;;;;;;;5.40;99.90;;;;;;5031829;28;20036;-64
2022/12/08 12:35:19;;;;;;;;;;;5.50;99.90;;;;;;5031146;28;19928;-64
2022/12/08 12:37:47;;;;;;;;;;;5.50;99.90;;;;;;5032009;28;20264;-64
2022/12/08 12:40:21;;;;;;;;;;;5.40;99.90;;;;;;5031756;28;19909;-63
2022/12/08 12:43:08;;;;;;;;;;;5.40;99.90;;;;;;5030282;28;20012;-62
2022/12/08 12:45:34;;;;;;;;;;;5.50;99.90;;;;;;5025524;28;19917;-64
2022/12/08 12:47:59;;;;;;;;;;;5.50;99.90;;;;;;5028997;28;19913;-64
2022/12/08 12:50:31;;;;;;;;;;;5.50;99.90;;;;;;5023278;28;20454;-64
2022/12/08 12:52:58;;;;;;;;;;;5.50;99.90;;;;;;5024658;28;19948;-65
2022/12/08 12:55:24;;;;;;;;;;;5.50;99.90;;;;;;5029910;28;19921;-64
2022/12/08 12:58:02;;;;;;;;;;;5.50;99.90;;;;;;5028835;28;20017;-64
2022/12/08 13:00:28;;;;;;;;;;;5.50;99.90;;;;;;5028341;28;19960;-63
2022/12/08 13:02:55;;;;;;;;;;;5.50;99.90;;;;;;5023325;28;19956;-63
2022/12/08 13:05:25;;;;;;;;;;;5.50;99.90;;;;;;5029052;28;19913;-64
2022/12/08 13:07:55;;;;;;;;;;;5.60;99.90;;;;;;5025528;28;20424;-64
2022/12/08 13:10:37;;;;;;;;;;;5.60;99.90;;;;;;5028462;28;19943;-64
2022/12/08 13:13:05;;;;;;;;;;;5.60;99.90;;;;;;5026990;28;19912;-63
2022/12/08 13:15:54;;;;;;;;;;;5.70;99.90;;;;;;5028859;28;20274;-63
2022/12/08 13:18:24;;;;;;;;;;;5.60;99.90;;;;;;5024393;28;20284;-64
2022/12/08 13:21:10;;;;;;;;;;;5.70;99.90;;;;;;5029735;28;19917;-63
2022/12/08 13:23:35;;;;;;;;;;;5.70;99.90;;;;;;5028080;28;19967;-63
2022/12/08 13:26:08;;;;;;;;;;;5.70;99.90;;;;;;5030920;28;19944;-63
2022/12/08 13:28:53;;;;;;;;;;;5.70;99.90;;;;;;5027080;28;20004;-64
2022/12/08 13:31:38;;;;;;;;;;;5.70;99.90;;;;;;5025898;28;19924;-63
2022/12/08 13:34:05;;;;;;;;;;;5.70;99.90;;;;;;5020249;28;19952;-64
2022/12/08 13:36:32;;;;;;;;;;;5.70;99.90;;;;;;5024159;28;19917;-64
2022/12/08 13:38:58;;;;;;;;;;;5.70;99.90;;;;;;5029732;28;19913;-64
2022/12/08 13:41:38;;;;;;;;;;;5.80;99.90;;;;;;5025539;28;20427;-65
2022/12/08 13:44:05;;;;;;;;;;;5.80;99.90;;;;;;5021312;28;20269;-64
2022/12/08 13:46:34;;;;;;;;;;;5.80;99.90;;;;;;5028744;28;19987;-63
2022/12/08 13:49:01;;;;;;;;;;;5.80;99.90;;;;;;5023614;28;19932;-63
2022/12/08 13:51:30;;;;;;;;;;;5.80;99.90;;;;;;5024750;28;20530;-64
2022/12/08 13:53:55;;;;;;;;;;;5.80;99.90;;;;;;5024115;28;20341;-65
2022/12/08 13:56:21;;;;;;;;;;;5.80;99.90;;;;;;5028202;28;19920;-63
2022/12/08 13:58:46;;;;;;;;;;;5.70;99.90;;;;;;5029555;28;19935;-61
2022/12/08 14:01:14;;;;;;;;;;;5.70;99.90;;;;;;5025643;28;19929;-63
2022/12/08 14:03:42;;;;;;;;;;;5.70;99.90;;;;;;5030091;28;20437;-63
2022/12/08 14:06:12;;;;;;;;;;;5.70;99.90;;;;;;5021849;28;20432;-63
2022/12/08 14:08:38;;;;;;;;;;;5.70;99.90;;;;;;5025377;28;20703;-64
2022/12/08 14:11:05;;;;;;;;;;;5.70;99.90;;;;;;5011285;28;19923;-63
2022/12/08 14:13:31;;;;;;;;;;;5.70;99.90;;;;;;5029728;28;19916;-64
2022/12/08 14:15:57;;;;;;;;;;;5.70;99.90;;;;;;5030633;28;20012;-64
2022/12/08 14:18:27;;;;;;;;;;;5.70;99.90;;;;;;5030843;28;19996;-63
2022/12/08 14:21:06;;;;;;;;;;;5.70;99.90;;;;;;5027438;28;19913;-63
2022/12/08 14:23:35;;;;;;;;;;;5.70;99.90;;;;;;5025756;28;20754;-64
2022/12/08 14:26:02;;;;;;;;;;;5.70;99.90;;;;;;5023104;28;20287;-63
2022/12/08 14:28:27;;;;;;;;;;;5.70;99.90;;;;;;5026852;28;19917;-64
2022/12/08 14:30:54;;;;;;;;;;;5.70;99.90;;;;;;5029607;28;19913;-64
2022/12/08 14:33:19;;;;;;;;;;;5.70;99.90;;;;;;5029402;28;19920;-63
2022/12/08 14:35:49;;;;;;;;;;;5.60;99.90;;;;;;5023715;28;19917;-64
2022/12/08 14:38:16;;;;;;;;;;;5.60;99.90;;;;;;5028711;28;19940;-63
2022/12/08 14:40:41;;;;;;;;;;;5.60;99.90;;;;;;5029655;28;19913;-65